METAR Data
IDs: Format: Raw Decoded Include TAF

Data at: 0122 UTC 24 Sep 2018

KFFX 240119Z AUTO 00000KT 10SM CLR 16/09 A3018 RMK AO2 T01550086
KFFX 240059Z AUTO 00000KT 10SM CLR 16/09 A3018 RMK AO2 T01560087
KFFX 240039Z AUTO 10003KT 10SM CLR 17/09 A3017 RMK AO2 T01650085
KFFX 240019Z AUTO 09003KT 10SM CLR 17/08 A3017 RMK AO2 T01710083
KFFX 232359Z AUTO 09004KT 10SM CLR 18/08 A3016 RMK AO2 T01770084 10218 20171
KFFX 232339Z AUTO 09004KT 10SM CLR 19/08 A3016 RMK AO2 T01870078
KFFX 232318Z AUTO 00000KT 10SM CLR 19/08 A3016 RMK AO2 T01940077
KFFX 232258Z AUTO 09003KT 10SM CLR 20/08 A3016 RMK AO2 T02010081
KFFX 232238Z AUTO 08004KT 10SM CLR 21/08 A3016 RMK AO2 T02050075
KFFX 232218Z AUTO 09004KT 10SM CLR 21/07 A3016 RMK AO2 T02100068
KFFX 232157Z AUTO 08007KT 10SM CLR 21/07 A3016 RMK AO2 T02120067
KFFX 232136Z AUTO 08005KT 10SM CLR 22/07 A3016 RMK AO2 T02150069
KFFX 232116Z AUTO 08005KT 10SM CLR 22/07 A3015 RMK AO2 T02160066
KFFX 232056Z AUTO 11004KT 10SM CLR 22/06 A3016 RMK AO2 T02170064
KFFX 232036Z AUTO 12004KT 10SM CLR 22/07 A3016 RMK AO2 T02160068
KFFX 232016Z AUTO 05004KT 10SM CLR 22/07 A3016 RMK AO2 T02150070
KFFX 231956Z AUTO 09004KT 10SM CLR 21/07 A3016 RMK AO2 T02110071
KFFX 231936Z AUTO 00000KT 10SM CLR 21/07 A3016 RMK AO2 T02050071
KFFX 231916Z AUTO 14005KT 10SM CLR 21/07 A3016 RMK AO2 T02090072
KFFX 231856Z AUTO 00000KT 10SM CLR 21/07 A3018 RMK AO2 T02060070
KFFX 231836Z AUTO 16004KT 10SM CLR 21/06 A3018 RMK AO2 T02060061
KFFX 231816Z AUTO 14005KT 10SM CLR 20/07 A3019 RMK AO2 T02030073
KFFX 231756Z AUTO 08006KT 10SM CLR 20/09 A3019 RMK AO2 T01970086 10198 20077
KFFX 231735Z AUTO 06004KT 10SM CLR 19/08 A3020 RMK AO2 T01930083
KFFX 231715Z AUTO 00000KT 10SM CLR 19/08 A3021 RMK AO2 T01910082
KFFX 231655Z AUTO 00000KT 10SM CLR 19/08 A3022 RMK AO2 T01850083
KFFX 231635Z AUTO 13003KT 10SM CLR 18/08 A3023 RMK AO2 T01840079
KFFX 231615Z AUTO 11004KT 10SM CLR 18/08 A3023 RMK AO2 T01800081
KFFX 231555Z AUTO 11005KT 10SM CLR 18/08 A3023 RMK AO2 T01770084
KFFX 231535Z AUTO 13004KT 10SM CLR 17/09 A3023 RMK AO2 T01700094
KFFX 231515Z AUTO 16003KT 10SM CLR 17/09 A3023 RMK AO2 T01650093
KFFX 231455Z AUTO 19003KT 10SM CLR 16/09 A3024 RMK AO2 T01590094
KFFX 231435Z AUTO 17003KT 10SM SCT032 15/09 A3024 RMK AO2 T01490093
KFFX 231415Z AUTO 14004KT 10SM BKN032 14/09 A3024 RMK AO2 T01420092
KFFX 231355Z AUTO 16004KT 10SM OVC030 13/09 A3024 RMK AO2 T01260089
KFFX 231335Z AUTO 00000KT 10SM BKN030 12/09 A3024 RMK AO2 T01230090
KFFX 231319Z AUTO 11004KT 10SM CLR 11/09 A3023 RMK AO2 T01140086
KFFX 231259Z AUTO 09003KT 10SM CLR 10/08 A3023 RMK AO2 T01020084
KFFX 231239Z AUTO 00000KT 10SM CLR 09/08 A3023 RMK AO2 T00920077
KFFX 231219Z AUTO 09004KT 10SM CLR 08/07 A3022 RMK AO2 T00820069
KFFX 231159Z AUTO 10003KT 10SM CLR 08/07 A3022 RMK AO2 T00760065 10081 20064
KFFX 231139Z AUTO 10003KT 10SM CLR 07/06 A3022 RMK AO2 T00700060
KFFX 231119Z AUTO 11003KT 10SM CLR 08/06 A3021 RMK AO2 T00750062
KFFX 231059Z AUTO 09004KT 10SM CLR 07/06 A3020 RMK AO2 T00740061
KFFX 231039Z AUTO 00000KT 10SM CLR 08/07 A3020 RMK AO2 T00800066
KFFX 231019Z AUTO 00000KT 10SM CLR 07/06 A3020 RMK AO2 T00680058
KFFX 230959Z AUTO 00000KT 10SM CLR 07/06 A3020 RMK AO2 T00660056
KFFX 230939Z AUTO 00000KT 10SM CLR 07/06 A3020 RMK AO2 T00700059
KFFX 230918Z AUTO 10003KT 10SM CLR 07/06 A3020 RMK AO2 T00740062
KFFX 230858Z AUTO 00000KT 10SM CLR 07/06 A3020 RMK AO2 T00740061
KFFX 230838Z AUTO 00000KT 10SM CLR 08/06 A3020 RMK AO2 T00750063
KFFX 230818Z AUTO 00000KT 10SM CLR 08/07 A3020 RMK AO2 T00770067
KFFX 230758Z AUTO 00000KT 10SM CLR 07/07 A3020 RMK AO2 T00730065
KFFX 230738Z AUTO 00000KT 10SM CLR 07/06 A3020 RMK AO2 T00680058
KFFX 230718Z AUTO 00000KT 10SM CLR 07/06 A3020 RMK AO2 T00690060
KFFX 230658Z AUTO 00000KT 10SM CLR 07/06 A3021 RMK AO2 T00730061
KFFX 230638Z AUTO 00000KT 10SM CLR 07/06 A3020 RMK AO2 T00700059
KFFX 230618Z AUTO 00000KT 10SM CLR 07/06 A3020 RMK AO2 T00730062
KFFX 230558Z AUTO 00000KT 10SM CLR 07/06 A3020 RMK AO2 T00700060 10137 20064 401820060
KFFX 230538Z AUTO 00000KT 10SM CLR 07/06 A3020 RMK AO2 T00660056
KFFX 230517Z AUTO 00000KT 10SM CLR 07/06 A3021 RMK AO2 T00740064
KFFX 230457Z AUTO 00000KT 10SM CLR 07/06 A3021 RMK AO2 T00740064
KFFX 230437Z AUTO 00000KT 08/07 A3021 RMK AO2 T00770067 PWINO
KFFX 230417Z AUTO 00000KT 10SM CLR 08/07 A3021 RMK AO2 T00790068
KFFX 230357Z AUTO 00000KT 10SM CLR 08/07 A3021 RMK AO2 T00820067
KFFX 230337Z AUTO 00000KT 10SM CLR 08/07 A3021 RMK AO2 T00810067
KFFX 230317Z AUTO 00000KT 10SM CLR 09/07 A3021 RMK AO2 T00940072
KFFX 230257Z AUTO 00000KT 10SM CLR 10/07 A3022 RMK AO2 T01000072
KFFX 230237Z AUTO 00000KT 10SM CLR 09/07 A3022 RMK AO2 T00860070
KFFX 230217Z AUTO 00000KT 10SM CLR 09/07 A3022 RMK AO2 T00930071
KFFX 230157Z AUTO 00000KT 10SM CLR 10/07 A3022 RMK AO2 T00990073
KFFX 230137Z AUTO 00000KT 10SM CLR 10/07 A3023 RMK AO2 T01010072
KFFX 230116Z AUTO 00000KT 10SM CLR 11/07 A3023 RMK AO2 T01080071
KFFX 230056Z AUTO 00000KT 10SM CLR 12/07 A3022 RMK AO2 T01200070
KFFX 230036Z AUTO 00000KT 10SM CLR 12/07 A3022 RMK AO2 T01220071
KFFX 230016Z AUTO 29004KT 10SM CLR 13/08 A3023 RMK AO2 T01260075
KFFX 222356Z AUTO 00000KT 10SM CLR 13/07 A3022 RMK AO2 T01340071 10182 20128
KFFX 222336Z AUTO 00000KT 10SM CLR 15/06 A3022 RMK AO2 T01480061
KFFX 222316Z AUTO 00000KT 10SM CLR 16/05 A3023 RMK AO2 T01600051
KFFX 222256Z AUTO 00000KT 10SM CLR 17/04 A3023 RMK AO2 T01690043
KFFX 222236Z AUTO 21003KT 10SM CLR 17/04 A3023 RMK AO2 T01740039
KFFX 222216Z AUTO 00000KT 10SM CLR 18/03 A3023 RMK AO2 T01760032
KFFX 222155Z AUTO 00000KT 10SM CLR 18/03 A3023 RMK AO2 T01750030
KFFX 222135Z AUTO 00000KT 10SM CLR 18/03 A3023 RMK AO2 T01750030
KFFX 222115Z AUTO 00000KT 10SM CLR 18/04 A3024 RMK AO2 T01790036
KFFX 222055Z AUTO 00000KT 10SM CLR 18/03 A3025 RMK AO2 T01780032
KFFX 222040Z AUTO 00000KT 10SM CLR 18/04 A3025 RMK AO2 T01800035
KFFX 222019Z AUTO 00000KT 10SM CLR 18/03 A3026 RMK AO2 T01750033
KFFX 221958Z AUTO 00000KT 10SM CLR 17/02 A3026 RMK AO2 T01710024
KFFX 221938Z AUTO 01004KT 10SM CLR 17/03 A3027 RMK AO2 T01730030
KFFX 221918Z AUTO 00000KT 10SM CLR 17/01 A3028 RMK AO2 T01680014
KFFX 221858Z AUTO 05004KT 10SM CLR 17/03 A3029 RMK AO2 T01740032
KFFX 221838Z AUTO 00000KT 10SM CLR 17/03 A3030 RMK AO2 T01660031
KFFX 221817Z AUTO 00000KT 10SM CLR 17/03 A3030 RMK AO2 T01660030
KFFX 221757Z AUTO 00000KT 10SM CLR 16/03 A3031 RMK AO2 T01610028 10165 20085
KFFX 221737Z AUTO 00000KT 10SM CLR 16/03 A3032 RMK AO2 T01610032
KFFX 221717Z AUTO 09003KT 10SM CLR 16/03 A3033 RMK AO2 T01580033
KFFX 221656Z AUTO 09007KT 10SM CLR 16/04 A3033 RMK AO2 T01600036
KFFX 221636Z AUTO 06004KT 10SM CLR 16/04 A3034 RMK AO2 T01570039
KFFX 221616Z AUTO 07006KT 10SM CLR 15/03 A3035 RMK AO2 T01510034
KFFX 221555Z AUTO 07005KT 10SM CLR 15/04 A3035 RMK AO2 T01500036
KFFX 221535Z AUTO 10006KT 10SM CLR 14/04 A3036 RMK AO2 T01440038
KFFX 221515Z AUTO 07003KT 10SM CLR 15/05 A3036 RMK AO2 T01450048
KFFX 221455Z AUTO 09005KT 10SM CLR 14/04 A3036 RMK AO2 T01370041
KFFX 221435Z AUTO 09006KT 10SM CLR 13/05 A3035 RMK AO2 T01320047
KFFX 221419Z AUTO 08005KT 10SM CLR 13/05 A3035 RMK AO2 T01260049
KFFX 221358Z AUTO 09007KT 10SM CLR 12/05 A3035 RMK AO2 T01230049
KFFX 221338Z AUTO 09006KT 10SM CLR 12/05 A3035 RMK AO2 T01160051